createdAt,value
2019-03-31T00:02:18.260Z,23.73
2019-03-31T00:05:05.027Z,21.65
2019-03-31T00:07:51.888Z,20.05
2019-03-31T00:10:38.607Z,17.15
2019-03-31T00:13:25.331Z,18.32
2019-03-31T00:16:13.285Z,20.30
2019-03-31T00:19:00.011Z,16.95
2019-03-31T00:21:47.731Z,14.55
2019-03-31T00:24:34.184Z,18.87
2019-03-31T00:27:20.740Z,14.80
2019-03-31T00:30:07.108Z,20.25
2019-03-31T00:32:53.289Z,14.68
2019-03-31T00:35:40.025Z,16.50
2019-03-31T00:38:26.670Z,12.50
2019-03-31T00:41:13.536Z,14.85
2019-03-31T00:44:00.185Z,16.17
2019-03-31T00:46:46.885Z,16.02
2019-03-31T00:49:33.571Z,11.28
2019-03-31T00:52:20.421Z,12.43
2019-03-31T00:55:06.986Z,11.35
2019-03-31T00:57:54.443Z,11.85
2019-03-31T01:00:59.275Z,11.10
2019-03-31T01:03:48.361Z,11.48
2019-03-31T01:06:35.303Z,12.23
2019-03-31T01:09:31.753Z,11.83
2019-03-31T01:12:19.799Z,11.18
2019-03-31T01:15:12.075Z,10.93
2019-03-31T01:17:59.206Z,9.43
2019-03-31T01:20:46.291Z,10.15
2019-03-31T01:23:33.276Z,9.85
2019-03-31T01:26:22.005Z,8.20
2019-03-31T01:29:09.698Z,7.37
2019-03-31T01:31:56.329Z,9.45
2019-03-31T01:34:42.955Z,9.35
2019-03-31T01:37:31.261Z,6.83
2019-03-31T01:40:18.147Z,11.57
2019-03-31T01:43:04.887Z,7.28
2019-03-31T01:45:51.257Z,6.33
2019-03-31T01:48:38.503Z,7.03
2019-03-31T01:51:25.267Z,6.58
2019-03-31T01:54:12.119Z,7.92
2019-03-31T01:56:58.988Z,8.75
2019-03-31T01:59:46.680Z,6.28
2019-03-31T02:02:33.439Z,8.35
2019-03-31T02:05:20.253Z,5.65
2019-03-31T02:08:07.243Z,6.03
2019-03-31T02:10:54.767Z,6.72
2019-03-31T02:13:41.516Z,5.67
2019-03-31T02:16:28.904Z,5.05
2019-03-31T02:19:15.266Z,7.37
2019-03-31T02:22:01.849Z,5.92
2019-03-31T02:24:49.704Z,5.62
2019-03-31T02:27:36.385Z,5.35
2019-03-31T02:30:23.094Z,5.28
2019-03-31T02:33:09.983Z,6.70
2019-03-31T02:35:56.720Z,4.55
2019-03-31T02:38:43.581Z,5.55
2019-03-31T02:41:30.470Z,4.10
2019-03-31T02:44:17.619Z,5.12
2019-03-31T02:47:04.315Z,3.42
2019-03-31T02:49:51.159Z,4.55
2019-03-31T02:52:37.841Z,3.42
2019-03-31T02:55:24.648Z,4.67
2019-03-31T02:58:11.385Z,6.25
2019-03-31T03:00:58.727Z,8.35
2019-03-31T03:03:46.723Z,4.30
2019-03-31T03:06:36.139Z,4.12
2019-03-31T03:09:25.223Z,4.55
2019-03-31T03:12:12.713Z,4.42
2019-03-31T03:15:02.256Z,6.20
2019-03-31T03:17:49.170Z,6.22
2019-03-31T03:20:35.934Z,5.15
2019-03-31T03:23:22.872Z,4.03
2019-03-31T03:26:09.487Z,4.62
2019-03-31T03:28:55.865Z,4.90
2019-03-31T03:31:42.502Z,4.53
2019-03-31T03:34:29.198Z,3.72
2019-03-31T03:37:15.849Z,4.25
2019-03-31T03:40:02.683Z,5.12
2019-03-31T03:42:49.225Z,2.85
2019-03-31T03:45:35.759Z,3.17
2019-03-31T03:48:22.305Z,3.80
2019-03-31T03:51:08.997Z,7.92
2019-03-31T03:53:55.825Z,4.15
2019-03-31T03:56:42.502Z,4.28
2019-03-31T03:59:29.182Z,3.60
2019-03-31T04:02:16.071Z,3.20
2019-03-31T04:05:02.922Z,2.87
2019-03-31T04:07:49.449Z,3.90
2019-03-31T04:11:07.823Z,3.27
2019-03-31T04:13:54.200Z,3.05
2019-03-31T04:16:40.769Z,4.30
2019-03-31T04:19:27.145Z,2.75
2019-03-31T04:22:13.782Z,4.08
2019-03-31T04:25:01.702Z,5.58
2019-03-31T04:27:48.393Z,4.97
2019-03-31T04:30:35.407Z,3.40
2019-03-31T04:33:22.152Z,3.15
2019-03-31T04:36:08.394Z,3.35
2019-03-31T04:38:59.659Z,2.92
2019-03-31T04:41:43.317Z,3.58
2019-03-31T04:44:30.117Z,3.40
2019-03-31T04:47:16.894Z,3.17
2019-03-31T04:50:04.090Z,3.83
2019-03-31T04:52:50.885Z,3.22
2019-03-31T04:55:37.854Z,3.10
2019-03-31T04:58:26.235Z,3.70
2019-03-31T05:01:12.377Z,4.15
2019-03-31T05:04:04.933Z,3.45
2019-03-31T05:06:47.485Z,3.65
2019-03-31T05:09:34.222Z,2.42
2019-03-31T05:12:20.925Z,4.53
2019-03-31T05:15:07.634Z,4.35
2019-03-31T05:17:54.391Z,5.78
2019-03-31T05:20:40.743Z,4.33
2019-03-31T05:23:27.519Z,4.45
2019-03-31T05:26:13.755Z,4.45
2019-03-31T05:29:00.543Z,3.40
2019-03-31T05:31:47.322Z,6.05
2019-03-31T05:34:33.994Z,3.58
2019-03-31T05:37:20.862Z,4.37
2019-03-31T05:40:07.663Z,3.42
2019-03-31T05:42:54.200Z,3.47
2019-03-31T05:45:40.651Z,2.37
2019-03-31T05:48:27.587Z,3.50
2019-03-31T05:51:14.221Z,3.20
2019-03-31T05:54:01.047Z,3.77
2019-03-31T05:56:47.815Z,4.75
2019-03-31T05:59:34.284Z,1.50
2019-03-31T06:02:21.233Z,3.00
2019-03-31T06:05:07.755Z,3.40
2019-03-31T06:07:53.875Z,3.20
2019-03-31T06:10:40.251Z,4.30
2019-03-31T06:13:26.942Z,4.42
2019-03-31T06:16:13.655Z,3.52
2019-03-31T06:19:00.330Z,3.67
2019-03-31T06:21:47.219Z,3.40
2019-03-31T06:24:33.346Z,2.80
2019-03-31T06:27:19.804Z,3.95
2019-03-31T06:30:10.180Z,2.90
2019-03-31T06:32:56.852Z,3.02
2019-03-31T06:35:43.432Z,2.80
2019-03-31T06:38:30.182Z,2.55
2019-03-31T06:41:16.800Z,2.47
2019-03-31T06:44:03.807Z,3.37
2019-03-31T06:46:50.305Z,3.05
2019-03-31T06:49:36.932Z,4.67
2019-03-31T06:52:23.468Z,5.47
2019-03-31T06:55:09.921Z,2.22
2019-03-31T06:57:57.552Z,4.03
2019-03-31T07:00:44.366Z,4.22
2019-03-31T07:03:31.096Z,3.85
2019-03-31T07:06:18.272Z,5.10
2019-03-31T07:09:05.727Z,5.83
2019-03-31T07:11:52.428Z,4.90
2019-03-31T07:14:39.248Z,3.83
2019-03-31T07:17:26.194Z,4.17
2019-03-31T07:20:14.835Z,2.87
2019-03-31T07:23:01.628Z,4.58
2019-03-31T07:25:48.195Z,5.83
2019-03-31T07:28:34.976Z,7.10
2019-03-31T07:31:21.701Z,4.47
2019-03-31T07:34:08.492Z,6.00
2019-03-31T07:36:55.178Z,5.72
2019-03-31T07:39:45.736Z,5.28
2019-03-31T07:42:30.457Z,4.45
2019-03-31T07:45:18.175Z,5.62
2019-03-31T07:48:07.928Z,5.40
2019-03-31T07:50:53.351Z,3.90
2019-03-31T07:53:42.075Z,3.85
2019-03-31T07:56:28.916Z,5.95
2019-03-31T07:59:15.734Z,4.45
2019-03-31T08:02:02.851Z,7.45
2019-03-31T08:04:49.034Z,6.22
2019-03-31T08:07:36.934Z,5.55
2019-03-31T08:10:23.585Z,4.00
2019-03-31T08:13:10.297Z,5.03
2019-03-31T08:15:56.536Z,6.80
2019-03-31T08:18:43.250Z,5.12
2019-03-31T08:21:29.683Z,5.87
2019-03-31T08:24:16.409Z,4.17
2019-03-31T08:27:05.617Z,3.83
2019-03-31T08:30:00.531Z,3.80
2019-03-31T08:32:40.798Z,5.47
2019-03-31T08:35:27.390Z,4.15
2019-03-31T08:38:16.810Z,4.72
2019-03-31T08:41:03.418Z,2.20
2019-03-31T08:43:49.978Z,3.50
2019-03-31T08:46:36.999Z,5.10
2019-03-31T08:49:23.499Z,4.28
2019-03-31T08:52:11.631Z,3.42
2019-03-31T08:54:58.371Z,2.77
2019-03-31T08:57:45.115Z,2.75
2019-03-31T09:00:37.302Z,3.67
2019-03-31T09:03:24.103Z,4.33
2019-03-31T09:06:10.335Z,4.87
2019-03-31T09:08:56.595Z,4.67
2019-03-31T09:11:42.679Z,3.83
2019-03-31T09:14:29.792Z,2.67
2019-03-31T09:17:16.367Z,4.20
2019-03-31T09:20:03.138Z,1.80
2019-03-31T09:22:49.815Z,3.80
2019-03-31T09:25:36.135Z,3.00
2019-03-31T09:28:22.767Z,3.67
2019-03-31T09:31:09.208Z,4.50
2019-03-31T09:33:55.842Z,7.25
2019-03-31T09:36:42.757Z,2.45
2019-03-31T09:39:29.763Z,4.50
2019-03-31T09:42:16.272Z,3.05
2019-03-31T09:45:03.069Z,3.35
2019-03-31T09:47:49.832Z,5.62
2019-03-31T09:50:36.561Z,4.33
2019-03-31T09:53:23.428Z,3.47
2019-03-31T09:56:10.166Z,3.15
2019-03-31T09:58:57.005Z,2.95
2019-03-31T10:01:43.583Z,2.22
2019-03-31T10:04:30.312Z,5.12
2019-03-31T10:07:17.042Z,3.00
2019-03-31T10:10:04.603Z,2.05
2019-03-31T10:12:50.996Z,1.95
2019-03-31T10:15:37.941Z,2.33
2019-03-31T10:18:24.531Z,3.83
2019-03-31T10:21:11.447Z,5.92
2019-03-31T10:23:58.223Z,2.72
2019-03-31T10:26:45.320Z,2.30
2019-03-31T10:29:31.976Z,9.13
2019-03-31T10:32:18.871Z,3.62
2019-03-31T10:35:06.736Z,4.08
2019-03-31T10:37:53.468Z,6.70
2019-03-31T10:40:40.171Z,8.40
2019-03-31T10:43:26.960Z,8.38
2019-03-31T10:46:13.555Z,8.03
2019-03-31T10:49:00.258Z,8.15
2019-03-31T10:51:46.798Z,8.75
2019-03-31T10:54:33.143Z,5.90
2019-03-31T10:57:19.419Z,11.88
2019-03-31T11:00:05.851Z,5.60
2019-03-31T11:02:52.528Z,6.15
2019-03-31T11:05:39.529Z,4.60
2019-03-31T11:08:26.063Z,6.95
2019-03-31T11:11:12.428Z,2.22
2019-03-31T11:13:59.215Z,3.58
2019-03-31T11:16:45.844Z,6.45
2019-03-31T11:19:32.448Z,6.17
2019-03-31T11:22:38.368Z,6.17
2019-03-31T11:25:28.935Z,4.95
2019-03-31T11:28:13.136Z,4.45
2019-03-31T11:30:59.712Z,5.83
2019-03-31T11:33:46.047Z,3.85
2019-03-31T11:36:32.800Z,6.05
2019-03-31T11:39:19.407Z,7.33
2019-03-31T11:42:05.657Z,7.33
2019-03-31T11:44:52.555Z,4.58
2019-03-31T11:47:39.225Z,4.97
2019-03-31T11:50:26.215Z,2.80
2019-03-31T11:53:12.892Z,7.70
2019-03-31T11:56:00.205Z,6.78
2019-03-31T11:58:47.046Z,6.70
2019-03-31T12:01:33.813Z,3.85
2019-03-31T12:04:20.516Z,3.42
2019-03-31T12:07:07.365Z,4.25
2019-03-31T12:09:53.952Z,3.80
2019-03-31T12:12:40.285Z,5.25
2019-03-31T12:15:27.074Z,3.15
2019-03-31T12:18:13.994Z,2.58
2019-03-31T12:21:00.632Z,6.95
2019-03-31T12:23:47.221Z,4.87
2019-03-31T12:26:33.817Z,4.58
2019-03-31T12:29:20.525Z,4.28
2019-03-31T12:32:07.311Z,2.45
2019-03-31T12:34:54.148Z,4.08
2019-03-31T12:37:43.298Z,4.37
2019-03-31T12:40:30.947Z,4.50
2019-03-31T12:43:20.024Z,4.22
2019-03-31T12:46:06.479Z,5.55
2019-03-31T12:48:55.593Z,6.08
2019-03-31T12:51:42.238Z,6.60
2019-03-31T12:54:29.055Z,3.87
2019-03-31T12:57:15.322Z,5.47
2019-03-31T13:00:02.046Z,5.67
2019-03-31T13:02:48.907Z,3.35
2019-03-31T13:05:35.658Z,7.20
2019-03-31T13:08:22.405Z,6.05
2019-03-31T13:11:09.158Z,3.95
2019-03-31T13:13:56.057Z,6.47
2019-03-31T13:16:42.671Z,7.10
2019-03-31T13:19:31.433Z,5.75
2019-03-31T13:22:17.788Z,6.47
2019-03-31T13:25:04.204Z,7.25
2019-03-31T13:27:50.439Z,7.47
2019-03-31T13:30:37.830Z,6.55
2019-03-31T13:33:24.507Z,4.22
2019-03-31T13:36:10.835Z,6.47
2019-03-31T13:38:57.439Z,14.85
2019-03-31T13:41:47.060Z,6.30
2019-03-31T13:44:32.296Z,7.05
2019-03-31T13:47:18.620Z,7.67
2019-03-31T13:50:05.477Z,6.97
2019-03-31T13:52:52.248Z,6.03
2019-03-31T13:55:38.971Z,4.20
2019-03-31T13:58:26.166Z,3.05
2019-03-31T14:01:14.278Z,6.03
2019-03-31T14:04:03.419Z,5.47
2019-03-31T14:06:50.211Z,5.53
2019-03-31T14:09:36.675Z,7.15
2019-03-31T14:12:23.381Z,12.05
2019-03-31T14:15:18.985Z,8.10
2019-03-31T14:17:58.332Z,6.80
2019-03-31T14:20:45.057Z,11.57
2019-03-31T14:23:31.791Z,8.00
2019-03-31T14:26:18.575Z,6.12
2019-03-31T14:29:05.256Z,4.83
2019-03-31T14:31:52.505Z,6.47
2019-03-31T14:34:39.159Z,7.33
2019-03-31T14:37:27.017Z,3.27
2019-03-31T14:40:13.736Z,7.67
2019-03-31T14:42:59.960Z,3.70
2019-03-31T14:45:46.664Z,6.95
2019-03-31T14:48:34.505Z,3.37
2019-03-31T14:51:21.119Z,4.42
2019-03-31T14:54:07.828Z,5.90
2019-03-31T14:56:54.251Z,4.22
2019-03-31T14:59:40.772Z,5.20
2019-03-31T15:02:27.359Z,9.20
2019-03-31T15:05:14.503Z,4.33
2019-03-31T15:08:02.365Z,6.60
2019-03-31T15:10:49.208Z,4.37
2019-03-31T15:13:35.859Z,4.87
2019-03-31T15:16:23.747Z,5.45
2019-03-31T15:19:10.540Z,3.37
2019-03-31T15:21:57.012Z,2.92
2019-03-31T15:24:43.828Z,2.15
2019-03-31T15:27:30.641Z,5.60
2019-03-31T15:30:17.359Z,4.28
2019-03-31T15:33:04.245Z,4.70
2019-03-31T15:35:50.952Z,7.20
2019-03-31T15:38:37.636Z,5.97
2019-03-31T15:41:24.523Z,4.60
2019-03-31T15:44:10.969Z,2.85
2019-03-31T15:47:00.203Z,2.55
2019-03-31T15:49:46.695Z,1.82
2019-03-31T15:52:33.269Z,2.00
2019-03-31T15:55:19.863Z,2.42
2019-03-31T15:58:06.123Z,1.35
2019-03-31T16:00:53.918Z,3.27
2019-03-31T16:03:40.514Z,3.27
2019-03-31T16:06:27.915Z,1.72
2019-03-31T16:09:23.457Z,1.30
2019-03-31T16:12:02.387Z,1.67
2019-03-31T16:14:48.415Z,1.02
2019-03-31T16:17:34.728Z,1.92
2019-03-31T16:20:20.820Z,1.27
2019-03-31T16:23:07.120Z,4.95
2019-03-31T16:25:55.927Z,3.62
2019-03-31T16:28:41.895Z,3.50
2019-03-31T16:31:28.011Z,1.62
2019-03-31T16:34:13.799Z,4.17
2019-03-31T16:36:59.815Z,4.70
2019-03-31T16:39:45.811Z,570.15
2019-03-31T16:42:31.919Z,1221.98
2019-03-31T16:45:18.142Z,859.05
2019-03-31T16:48:04.808Z,682.65
2019-03-31T16:50:51.004Z,568.27
2019-03-31T16:53:37.143Z,503.27
2019-03-31T16:56:23.655Z,460.10
2019-03-31T16:59:09.812Z,465.12
2019-03-31T17:01:56.084Z,432.43
2019-03-31T17:04:42.415Z,426.77
2019-03-31T17:07:28.645Z,378.45
2019-03-31T17:10:14.765Z,397.80
2019-03-31T17:13:01.008Z,344.07
2019-03-31T17:15:47.001Z,316.33
2019-03-31T17:18:33.270Z,302.90
2019-03-31T17:21:19.300Z,294.82
2019-03-31T17:24:05.505Z,289.27
2019-03-31T17:26:54.071Z,285.32
2019-03-31T17:29:40.039Z,239.00
2019-03-31T17:32:26.100Z,245.30
2019-03-31T17:35:12.369Z,228.83
2019-03-31T17:37:58.146Z,231.63
2019-03-31T17:40:44.259Z,210.65
2019-03-31T17:43:30.587Z,210.15
2019-03-31T17:46:16.392Z,197.62
2019-03-31T17:49:02.811Z,202.82
2019-03-31T17:51:48.744Z,183.90
2019-03-31T17:54:34.847Z,187.57
2019-03-31T17:57:20.584Z,170.15
2019-03-31T18:00:08.556Z,166.03
2019-03-31T18:02:54.703Z,172.85
2019-03-31T18:05:40.512Z,205.62
2019-03-31T18:08:26.687Z,321.45
2019-03-31T18:11:12.760Z,324.18
2019-03-31T18:13:59.098Z,308.02
2019-03-31T18:16:45.167Z,304.63
2019-03-31T18:19:31.767Z,282.25
2019-03-31T18:22:17.923Z,279.38
2019-03-31T18:25:05.164Z,273.73
2019-03-31T18:27:51.307Z,265.20
2019-03-31T18:30:37.755Z,260.48
2019-03-31T18:33:23.857Z,247.00
2019-03-31T18:36:10.276Z,245.88
2019-03-31T18:38:56.372Z,232.57
2019-03-31T18:41:42.008Z,225.18
2019-03-31T18:44:28.297Z,224.65
2019-03-31T18:47:14.439Z,223.80
2019-03-31T18:50:00.595Z,205.45
2019-03-31T18:52:46.991Z,216.17
2019-03-31T18:55:41.416Z,207.67
2019-03-31T18:58:47.131Z,203.55
2019-03-31T19:01:49.221Z,193.43
2019-03-31T19:05:00.504Z,174.42
2019-03-31T19:07:55.617Z,177.27
2019-03-31T19:10:55.531Z,182.17
2019-03-31T19:13:56.000Z,177.12
2019-03-31T19:17:13.362Z,162.22
2019-03-31T19:20:21.784Z,147.07
2019-03-31T19:23:13.287Z,154.10
2019-03-31T19:26:17.237Z,150.03
2019-03-31T19:29:17.152Z,144.10
2019-03-31T19:32:40.047Z,142.60
2019-03-31T19:35:51.307Z,144.47
2019-03-31T19:38:50.029Z,135.75
2019-03-31T19:42:01.838Z,125.40
2019-03-31T19:45:13.497Z,128.57
2019-03-31T19:48:19.415Z,119.75
2019-03-31T19:51:24.844Z,112.62
2019-03-31T19:54:25.635Z,124.33
2019-03-31T19:57:30.484Z,105.27
2019-03-31T20:00:35.899Z,106.00
2019-03-31T20:03:29.396Z,104.15
2019-03-31T20:06:37.486Z,99.85
2019-03-31T20:09:33.456Z,92.57
2019-03-31T20:12:41.995Z,96.08
2019-03-31T20:15:41.008Z,276.18
2019-03-31T20:18:36.047Z,151.78
2019-03-31T20:21:45.215Z,138.65
2019-03-31T20:24:49.611Z,133.37
2019-03-31T20:27:54.899Z,114.67
2019-03-31T20:30:50.224Z,119.82
2019-03-31T20:33:54.399Z,108.07
2019-03-31T20:37:15.897Z,100.25
2019-03-31T20:40:15.485Z,99.80
2019-03-31T20:43:25.639Z,97.50
2019-03-31T20:46:11.677Z,87.88
2019-03-31T20:48:58.000Z,87.22
2019-03-31T20:51:47.129Z,87.80
2019-03-31T20:54:34.239Z,85.70
2019-03-31T20:57:20.392Z,74.97
2019-03-31T21:00:08.876Z,74.25
2019-03-31T21:02:56.893Z,78.20
2019-03-31T21:05:42.989Z,77.15
2019-03-31T21:08:28.847Z,75.47
2019-03-31T21:11:14.920Z,74.22
2019-03-31T21:14:01.157Z,67.75
2019-03-31T21:16:47.375Z,66.87
2019-03-31T21:19:33.661Z,64.10
2019-03-31T21:22:19.894Z,62.98
2019-03-31T21:25:06.420Z,65.10
2019-03-31T21:27:52.527Z,82.08
2019-03-31T21:30:38.191Z,62.27
2019-03-31T21:33:24.248Z,58.78
2019-03-31T21:36:10.396Z,53.80
2019-03-31T21:38:56.175Z,56.10
2019-03-31T21:41:43.843Z,51.37
2019-03-31T21:44:29.815Z,49.35
2019-03-31T21:47:16.276Z,56.30
2019-03-31T21:50:02.398Z,50.67
2019-03-31T21:52:49.507Z,47.60
2019-03-31T21:55:35.711Z,47.98
2019-03-31T21:58:21.976Z,48.98
2019-03-31T22:01:08.167Z,43.58
2019-03-31T22:03:55.532Z,37.28
2019-03-31T22:06:41.615Z,40.90
2019-03-31T22:09:28.767Z,38.02
2019-03-31T22:12:15.047Z,39.53
2019-03-31T22:15:00.612Z,38.40
2019-03-31T22:17:46.429Z,36.65
2019-03-31T22:20:32.656Z,40.48
2019-03-31T22:23:18.811Z,33.75
2019-03-31T22:26:05.179Z,36.08
2019-03-31T22:28:51.348Z,34.55
2019-03-31T22:31:38.396Z,31.07
2019-03-31T22:34:24.621Z,34.85
2019-03-31T22:37:10.873Z,32.58
2019-03-31T22:39:58.603Z,30.00
2019-03-31T22:42:44.866Z,30.57
2019-03-31T22:45:30.900Z,27.45
2019-03-31T22:48:17.151Z,27.00
2019-03-31T22:51:03.567Z,28.57
2019-03-31T22:53:49.374Z,28.23
2019-03-31T22:56:35.576Z,26.00
2019-03-31T22:59:21.823Z,25.88
2019-03-31T23:02:07.914Z,24.82
2019-03-31T23:04:53.640Z,23.90
2019-03-31T23:07:39.684Z,23.02
2019-03-31T23:10:25.861Z,20.12
2019-03-31T23:13:12.183Z,24.25
2019-03-31T23:15:58.423Z,25.97
2019-03-31T23:18:46.882Z,24.23
2019-03-31T23:21:33.291Z,19.05
2019-03-31T23:24:19.365Z,17.80
2019-03-31T23:27:05.475Z,18.77
2019-03-31T23:29:51.653Z,21.25
2019-03-31T23:32:37.906Z,19.60
2019-03-31T23:35:23.924Z,16.15
2019-03-31T23:38:10.213Z,18.00
2019-03-31T23:40:56.335Z,17.65
2019-03-31T23:43:42.246Z,15.00
2019-03-31T23:46:28.435Z,17.37
2019-03-31T23:49:14.584Z,16.75
2019-03-31T23:52:00.847Z,15.03
2019-03-31T23:54:46.991Z,14.95
2019-03-31T23:57:39.612Z,15.58
